Time;durP1;ratioP1;P1;durP2;ratioP2;P2;SDS_P1;SDS_P2;PMS_P1;PMS_P2;Temp;Humidity;BMP_temperature;BMP_pressure;BME280_temperature;BME280_humidity;BME280_pressure;Samples;Min_cycle;Max_cycle;Signal;HPM_P1;HPM_P2
2023/01/01 00:00:26;;;;;;;17.40;12.07;;;15.80;68.70;;;;;;5030520;28;20575;-52
2023/01/01 00:02:53;;;;;;;18.63;9.33;;;15.90;74.70;;;;;;5030978;28;20523;-50
2023/01/01 00:05:20;;;;;;;22.67;11.40;;;15.90;77.90;;;;;;5031467;28;20482;-53
2023/01/01 00:07:47;;;;;;;16.50;10.53;;;15.90;76.50;;;;;;5031093;28;20531;-50
2023/01/01 00:10:29;;;;;;;14.93;8.50;;;16.00;78.70;;;;;;5029765;28;20491;-51
2023/01/01 00:12:55;;;;;;;17.33;8.17;;;15.90;82.50;;;;;;5030919;28;20517;-51
2023/01/01 00:15:22;;;;;;;12.73;7.93;;;16.00;88.00;;;;;;5031385;28;20489;-52
2023/01/01 00:17:48;;;;;;;17.00;6.63;;;16.00;90.60;;;;;;5030678;28;20833;-51
2023/01/01 00:20:15;;;;;;;8.30;6.27;;;16.00;89.80;;;;;;5031305;28;20567;-52
2023/01/01 00:22:43;;;;;;;14.83;7.77;;;16.00;91.00;;;;;;5030597;28;20515;-51
2023/01/01 00:25:13;;;;;;;15.27;6.40;;;15.90;91.10;;;;;;5029631;28;20507;-51
2023/01/01 00:27:39;;;;;;;8.93;5.67;;;16.00;93.50;;;;;;5022796;28;21011;-51
2023/01/01 00:30:07;;;;;;;10.13;5.93;;;15.90;93.10;;;;;;5031296;28;20558;-51
2023/01/01 00:32:34;;;;;;;11.77;6.10;;;15.90;93.10;;;;;;5030498;28;20496;-52
2023/01/01 00:35:00;;;;;;;10.20;5.47;;;15.90;94.60;;;;;;5031031;28;20474;-52
2023/01/01 00:37:27;;;;;;;12.87;4.77;;;15.90;96.30;;;;;;5030363;28;20985;-52
2023/01/01 00:39:55;;;;;;;4.90;4.30;;;15.90;95.90;;;;;;5031370;28;20494;-52
2023/01/01 00:42:22;;;;;;;8.33;4.47;;;15.90;97.70;;;;;;5030243;28;20572;-52
2023/01/01 00:44:48;;;;;;;8.23;4.50;;;15.90;99.90;;;;;;5031008;28;20478;-52
2023/01/01 00:47:15;;;;;;;11.07;5.13;;;15.80;99.90;;;;;;5030558;28;20562;-52
2023/01/01 00:49:41;;;;;;;6.33;4.33;;;15.80;99.30;;;;;;5031055;28;20502;-52
2023/01/01 00:52:08;;;;;;;9.70;4.90;;;15.70;97.00;;;;;;5030615;28;20491;-52
2023/01/01 00:54:34;;;;;;;7.90;5.03;;;15.70;96.90;;;;;;5030945;28;20494;-52
2023/01/01 00:57:02;;;;;;;7.77;5.10;;;15.70;99.90;;;;;;5028726;28;20555;-52
2023/01/01 00:59:29;;;;;;;9.27;4.50;;;15.70;99.90;;;;;;5032775;28;20887;-52
2023/01/01 01:01:55;;;;;;;12.37;4.97;;;15.70;99.90;;;;;;5033348;28;21078;-52
2023/01/01 01:04:22;;;;;;;11.53;3.47;;;15.70;99.90;;;;;;5034374;28;20954;-52
2023/01/01 01:06:49;;;;;;;10.57;4.27;;;15.70;99.90;;;;;;5034383;28;20468;-52
2023/01/01 01:09:15;;;;;;;9.50;4.40;;;15.60;99.90;;;;;;5034904;28;20530;-52
2023/01/01 01:11:42;;;;;;;4.50;3.13;;;15.60;99.90;;;;;;5033021;28;20613;-52
2023/01/01 01:14:10;;;;;;;7.60;3.30;;;15.60;99.90;;;;;;5034527;28;20860;-52
2023/01/01 01:16:36;;;;;;;12.07;3.43;;;15.50;99.90;;;;;;5034884;28;20474;-52
2023/01/01 01:19:05;;;;;;;7.57;4.23;;;15.50;99.90;;;;;;5033803;28;20549;-52
2023/01/01 01:21:33;;;;;;;7.17;3.80;;;15.50;99.90;;;;;;5031397;28;20492;-52
2023/01/01 01:24:02;;;;;;;9.83;3.33;;;15.60;99.90;;;;;;5030031;28;20942;-52
2023/01/01 01:26:30;;;;;;;7.83;2.80;;;15.60;99.90;;;;;;5026167;28;20817;-52
2023/01/01 01:28:57;;;;;;;8.40;3.47;;;15.70;99.90;;;;;;5020800;28;20559;-52
2023/01/01 01:31:28;;;;;;;9.77;3.47;;;15.60;99.90;;;;;;5028452;28;20567;-52
2023/01/01 01:33:56;;;;;;;5.07;2.93;;;15.60;99.90;;;;;;5027357;28;20830;-51
2023/01/01 01:36:22;;;;;;;7.27;3.27;;;15.60;99.90;;;;;;5023818;28;20468;-51
2023/01/01 01:38:49;;;;;;;6.83;3.70;;;15.50;99.90;;;;;;5024444;28;20486;-51
2023/01/01 01:41:18;;;;;;;9.70;3.90;;;15.50;99.90;;;;;;5026975;28;20563;-52
2023/01/01 01:43:51;;;;;;;10.57;3.90;;;15.60;99.90;;;;;;5031399;28;20575;-51
2023/01/01 01:46:20;;;;;;;6.50;3.07;;;15.50;99.90;;;;;;5031709;28;20476;-52
2023/01/01 01:48:49;;;;;;;13.87;3.10;;;15.50;99.90;;;;;;5032295;28;20459;-55
2023/01/01 01:51:20;;;;;;;8.33;3.00;;;15.50;99.90;;;;;;5025830;28;20579;-55
2023/01/01 01:53:51;;;;;;;8.40;3.50;;;15.50;99.90;;;;;;5032672;28;20506;-54
2023/01/01 01:56:21;;;;;;;7.47;3.57;;;15.70;99.90;;;;;;5031738;28;21029;-54
2023/01/01 01:58:48;;;;;;;11.33;3.03;;;15.70;99.90;;;;;;5031194;28;20471;-54
2023/01/01 02:01:15;;;;;;;9.77;3.50;;;15.70;99.90;;;;;;5031071;28;20569;-55
2023/01/01 02:03:47;;;;;;;9.33;2.97;;;15.70;99.90;;;;;;5032032;28;21088;-53
2023/01/01 02:06:16;;;;;;;7.33;3.60;;;15.70;99.90;;;;;;5029735;28;20488;-54
2023/01/01 02:08:42;;;;;;;8.47;3.57;;;15.70;99.90;;;;;;5030856;28;20460;-54
2023/01/01 02:11:09;;;;;;;11.03;4.57;;;15.70;99.90;;;;;;5028311;28;20542;-55
2023/01/01 02:13:35;;;;;;;9.70;3.60;;;15.60;99.90;;;;;;5025030;28;20562;-55
2023/01/01 02:16:07;;;;;;;5.50;3.43;;;15.50;99.90;;;;;;5026625;28;21020;-57
2023/01/01 02:18:40;;;;;;;7.93;3.90;;;15.60;99.90;;;;;;5027528;28;20546;-55
2023/01/01 02:21:13;;;;;;;11.50;4.20;;;15.70;99.90;;;;;;5030039;28;20969;-56
2023/01/01 02:24:02;;;;;;;7.77;3.57;;;15.70;99.90;;;;;;5031234;28;20492;-51
2023/01/01 02:26:41;;;;;;;14.50;4.10;;;15.70;99.90;;;;;;5026588;28;20500;-51
2023/01/01 02:29:29;;;;;;;9.80;4.03;;;15.80;99.90;;;;;;5028000;28;20616;-53
2023/01/01 02:32:00;;;;;;;7.40;3.83;;;15.80;99.90;;;;;;5026239;28;20472;-52
2023/01/01 02:34:30;;;;;;;7.37;3.93;;;15.70;99.90;;;;;;5030621;28;20460;-51
2023/01/01 02:37:00;;;;;;;5.63;3.70;;;15.80;99.90;;;;;;5031181;28;20484;-51
2023/01/01 02:39:31;;;;;;;12.20;4.37;;;15.80;99.90;;;;;;5025991;28;20612;-53
2023/01/01 02:42:00;;;;;;;10.13;4.83;;;15.70;99.90;;;;;;5026802;28;21037;-50
2023/01/01 02:44:31;;;;;;;8.47;4.23;;;15.70;99.90;;;;;;5029502;28;20968;-51
2023/01/01 02:47:06;;;;;;;8.13;3.93;;;15.60;99.90;;;;;;5029833;28;20471;-51
2023/01/01 02:49:35;;;;;;;22.53;3.90;;;15.60;99.90;;;;;;5031264;28;20512;-51
2023/01/01 02:52:07;;;;;;;14.70;3.07;;;15.60;99.90;;;;;;5032808;28;20494;-52
2023/01/01 02:54:41;;;;;;;6.53;4.33;;;15.60;99.90;;;;;;5030721;28;20487;-52
2023/01/01 02:57:16;;;;;;;5.40;3.30;;;15.60;99.90;;;;;;5025336;28;20901;-52
2023/01/01 03:02:50;;;;;;;13.60;4.20;;;15.50;99.90;;;;;;5028826;28;20520;-52
2023/01/01 03:05:30;;;;;;;4.73;3.53;;;15.50;99.90;;;;;;5028237;28;20459;-53
2023/01/01 03:08:06;;;;;;;8.80;3.80;;;15.50;99.90;;;;;;5027627;28;20455;-51
2023/01/01 03:10:41;;;;;;;7.23;3.97;;;15.50;99.90;;;;;;5023088;28;20487;-50
2023/01/01 03:13:15;;;;;;;12.23;4.70;;;15.50;99.90;;;;;;5028016;28;20466;-52
2023/01/01 03:15:52;;;;;;;7.50;4.33;;;15.40;99.90;;;;;;5024053;28;20468;-51
2023/01/01 03:18:24;;;;;;;5.97;3.67;;;15.30;99.90;;;;;;5030158;28;20464;-51
2023/01/01 03:20:54;;;;;;;10.00;4.43;;;15.20;99.90;;;;;;5029884;28;20538;-54
2023/01/01 03:23:27;;;;;;;8.20;3.67;;;15.10;99.90;;;;;;5025086;28;20483;-51
2023/01/01 03:25:57;;;;;;;12.23;4.20;;;15.10;99.90;;;;;;5030614;28;20464;-52
2023/01/01 03:28:28;;;;;;;7.07;3.47;;;14.90;99.90;;;;;;5030823;28;20956;-52
2023/01/01 03:30:57;;;;;;;7.97;3.90;;;15.00;99.90;;;;;;5029491;28;22107;-51
2023/01/01 03:33:29;;;;;;;11.53;4.67;;;15.00;99.90;;;;;;5031200;28;20463;-54
2023/01/01 03:36:00;;;;;;;3.37;3.07;;;14.90;99.90;;;;;;5031050;28;20485;-55
2023/01/01 03:38:31;;;;;;;8.40;3.87;;;15.00;99.90;;;;;;5032576;28;21019;-52
2023/01/01 03:41:02;;;;;;;10.23;3.97;;;15.00;99.90;;;;;;5031866;28;20491;-54
2023/01/01 03:43:35;;;;;;;5.23;3.53;;;15.10;99.90;;;;;;5030842;28;20488;-52
2023/01/01 03:46:05;;;;;;;7.90;3.73;;;15.10;99.90;;;;;;5028527;28;20518;-51
2023/01/01 03:48:54;;;;;;;5.90;3.37;;;15.10;99.90;;;;;;5030782;28;20459;-52
2023/01/01 03:51:26;;;;;;;4.00;3.60;;;15.00;99.90;;;;;;5031855;28;20464;-51
2023/01/01 03:53:58;;;;;;;10.67;3.77;;;15.00;99.90;;;;;;5031185;28;20467;-51
2023/01/01 03:56:33;;;;;;;5.03;3.30;;;14.90;99.90;;;;;;5030028;28;20873;-51
2023/01/01 03:59:07;;;;;;;7.83;3.43;;;14.90;99.90;;;;;;5032072;28;20518;-51
2023/01/01 04:01:39;;;;;;;7.23;3.80;;;15.00;99.90;;;;;;5031603;28;20476;-51
2023/01/01 04:04:07;;;;;;;7.90;4.00;;;14.90;99.90;;;;;;5028127;28;20568;-54
2023/01/01 04:06:34;;;;;;;9.60;4.53;;;14.90;99.90;;;;;;5026012;28;20555;-52
2023/01/01 04:09:02;;;;;;;14.77;3.53;;;14.90;99.90;;;;;;5024087;28;20547;-51
2023/01/01 04:14:27;;;;;;;7.37;3.60;;;15.00;99.90;;;;;;5029361;28;20498;-51
2023/01/01 04:16:55;;;;;;;4.80;3.37;;;14.90;99.90;;;;;;5025017;28;20464;-52
2023/01/01 04:19:22;;;;;;;11.07;3.90;;;14.80;99.90;;;;;;5025983;28;20465;-52
2023/01/01 04:21:48;;;;;;;7.97;3.00;;;14.90;99.90;;;;;;5028454;28;20582;-52
2023/01/01 04:24:15;;;;;;;8.47;4.37;;;14.90;99.90;;;;;;5030030;28;20638;-52
2023/01/01 04:26:41;;;;;;;11.10;3.57;;;14.90;99.90;;;;;;5029039;28;21019;-53
2023/01/01 04:29:08;;;;;;;7.17;3.63;;;14.90;99.90;;;;;;5029647;28;20492;-53
2023/01/01 04:31:35;;;;;;;8.67;3.47;;;15.00;99.90;;;;;;5026936;28;20620;-52
2023/01/01 04:34:03;;;;;;;5.93;4.10;;;14.90;99.90;;;;;;5029574;28;20557;-52
2023/01/01 04:36:30;;;;;;;7.33;3.47;;;14.80;99.90;;;;;;5032170;28;20993;-52
2023/01/01 04:38:56;;;;;;;5.60;3.63;;;14.80;99.90;;;;;;5033716;28;20496;-52
2023/01/01 04:41:23;;;;;;;5.80;3.73;;;14.80;99.90;;;;;;5030120;28;20471;-53
2023/01/01 04:43:50;;;;;;;7.47;3.53;;;14.90;99.90;;;;;;5032065;28;20575;-51
2023/01/01 04:46:18;;;;;;;12.93;4.47;;;14.80;99.90;;;;;;5033352;28;20459;-52
2023/01/01 04:48:45;;;;;;;9.03;3.30;;;14.80;99.90;;;;;;5032172;28;20499;-53
2023/01/01 04:51:14;;;;;;;7.00;3.57;;;14.80;99.90;;;;;;5029107;28;20940;-53
2023/01/01 04:53:41;;;;;;;5.77;3.60;;;14.80;99.90;;;;;;5032079;28;20489;-53
2023/01/01 04:56:09;;;;;;;16.40;4.43;;;14.70;99.90;;;;;;5033975;28;20910;-53
2023/01/01 04:58:38;;;;;;;18.63;3.60;;;14.70;99.90;;;;;;5034042;28;20458;-52
2023/01/01 05:01:05;;;;;;;10.10;4.13;;;14.70;99.90;;;;;;5034772;28;21049;-54
2023/01/01 05:03:32;;;;;;;12.60;4.80;;;14.70;99.90;;;;;;5033165;28;20569;-51
2023/01/01 05:06:02;;;;;;;7.30;4.20;;;14.70;99.90;;;;;;5033800;28;20504;-53
2023/01/01 05:08:30;;;;;;;11.70;5.13;;;14.70;99.90;;;;;;5033049;28;20554;-52
2023/01/01 05:11:00;;;;;;;11.00;3.80;;;14.70;99.90;;;;;;5033071;28;20511;-54
2023/01/01 05:13:27;;;;;;;5.50;3.90;;;14.70;99.90;;;;;;5031419;28;20467;-52
2023/01/01 05:15:53;;;;;;;7.80;4.03;;;14.70;99.90;;;;;;5033551;28;20534;-52
2023/01/01 05:18:20;;;;;;;11.83;4.10;;;14.70;99.90;;;;;;5032581;28;20539;-51
2023/01/01 05:20:47;;;;;;;11.57;4.40;;;14.70;99.90;;;;;;5033667;28;20594;-52
2023/01/01 05:23:15;;;;;;;12.97;4.80;;;14.80;99.90;;;;;;5032306;28;20513;-52
2023/01/01 05:25:43;;;;;;;7.50;4.20;;;14.70;99.90;;;;;;5033358;28;20443;-52
2023/01/01 05:28:09;;;;;;;8.93;4.20;;;14.80;99.90;;;;;;5032975;28;20490;-53
2023/01/01 05:30:39;;;;;;;6.40;3.97;;;14.80;99.90;;;;;;5034115;28;20930;-52
2023/01/01 05:33:05;;;;;;;7.80;4.87;;;14.90;99.90;;;;;;5033259;28;20504;-52
2023/01/01 05:35:32;;;;;;;6.80;3.60;;;14.90;99.90;;;;;;5030835;28;20964;-52
2023/01/01 05:37:59;;;;;;;6.80;3.40;;;14.90;99.90;;;;;;5031620;28;21009;-53
2023/01/01 05:40:25;;;;;;;3.50;3.20;;;14.90;99.90;;;;;;5033336;28;20514;-52
2023/01/01 05:42:53;;;;;;;6.90;3.27;;;15.10;99.90;;;;;;5032339;28;20560;-52
2023/01/01 05:45:19;;;;;;;7.10;3.63;;;15.00;99.90;;;;;;5033394;28;20535;-51
2023/01/01 05:47:46;;;;;;;8.93;4.20;;;15.00;99.90;;;;;;5032315;28;20495;-52
2023/01/01 05:50:13;;;;;;;8.87;4.20;;;15.00;99.90;;;;;;5033386;28;20522;-51
2023/01/01 05:52:39;;;;;;;18.53;3.27;;;15.00;99.90;;;;;;5033105;28;20543;-51
2023/01/01 05:55:06;;;;;;;6.93;3.97;;;15.10;99.90;;;;;;5031710;28;20548;-52
2023/01/01 05:57:33;;;;;;;8.80;4.07;;;15.20;99.90;;;;;;5030486;28;20538;-51
2023/01/01 06:00:01;;;;;;;13.37;4.50;;;15.20;99.90;;;;;;5032498;28;20914;-51
2023/01/01 06:02:30;;;;;;;7.73;3.80;;;15.10;99.90;;;;;;5031419;28;20496;-52
2023/01/01 06:04:57;;;;;;;7.20;4.47;;;15.20;99.90;;;;;;5032203;28;20515;-51
2023/01/01 06:07:23;;;;;;;12.57;3.60;;;15.20;99.90;;;;;;5033644;28;20463;-53
2023/01/01 06:09:50;;;;;;;10.23;4.50;;;15.20;99.90;;;;;;5032183;28;20506;-52
2023/01/01 06:12:16;;;;;;;7.43;3.57;;;15.10;99.90;;;;;;5031091;28;20503;-50
2023/01/01 06:14:43;;;;;;;8.63;3.90;;;15.20;99.90;;;;;;5027606;28;20547;-51
2023/01/01 06:17:11;;;;;;;8.70;3.57;;;15.20;99.90;;;;;;5031399;28;20562;-51
2023/01/01 06:19:37;;;;;;;5.20;3.03;;;15.20;99.90;;;;;;5029104;28;20546;-52
2023/01/01 06:22:04;;;;;;;9.10;3.70;;;15.20;99.90;;;;;;5031696;28;20914;-51
2023/01/01 06:24:31;;;;;;;7.03;3.30;;;15.20;99.90;;;;;;5032264;28;20494;-50
2023/01/01 06:26:57;;;;;;;6.20;4.00;;;15.20;99.90;;;;;;5030224;28;20995;-53
2023/01/01 06:29:24;;;;;;;9.13;3.10;;;15.20;99.90;;;;;;5032139;28;20550;-53
2023/01/01 06:31:50;;;;;;;7.03;4.80;;;15.20;99.90;;;;;;5032379;28;20566;-52
2023/01/01 06:34:18;;;;;;;4.93;3.10;;;15.20;99.90;;;;;;5033022;28;20467;-53
2023/01/01 06:36:45;;;;;;;6.43;3.90;;;15.10;99.90;;;;;;5032183;28;20548;-53
2023/01/01 06:39:11;;;;;;;9.30;4.27;;;15.00;99.90;;;;;;5033228;28;20534;-51
2023/01/01 06:41:38;;;;;;;3.80;2.80;;;15.00;99.90;;;;;;5030616;28;20490;-53
2023/01/01 06:44:04;;;;;;;4.73;3.40;;;15.00;99.90;;;;;;5031157;28;21238;-51
2023/01/01 06:46:32;;;;;;;7.17;3.47;;;15.00;99.90;;;;;;5033041;28;20477;-53
2023/01/01 06:49:01;;;;;;;6.03;3.43;;;15.00;99.90;;;;;;5032219;28;20509;-52
2023/01/01 06:51:31;;;;;;;7.10;3.00;;;15.00;99.90;;;;;;5032351;28;20522;-52
2023/01/01 06:53:59;;;;;;;4.47;3.40;;;15.00;99.90;;;;;;5032322;28;20459;-52
2023/01/01 06:56:26;;;;;;;5.60;3.40;;;15.00;99.90;;;;;;5031588;28;21121;-51
2023/01/01 06:58:52;;;;;;;6.27;3.40;;;14.90;99.90;;;;;;5031311;28;20500;-52
2023/01/01 07:01:21;;;;;;;7.37;3.23;;;14.90;99.90;;;;;;5032182;28;20566;-53
2023/01/01 07:03:51;;;;;;;7.40;3.13;;;14.90;99.90;;;;;;5028171;28;20580;-52
2023/01/01 07:06:18;;;;;;;10.97;4.40;;;14.80;99.90;;;;;;5027331;28;20526;-51
2023/01/01 07:08:46;;;;;;;6.00;3.70;;;14.90;99.90;;;;;;5032039;28;20498;-51
2023/01/01 07:11:12;;;;;;;7.80;4.27;;;14.90;99.90;;;;;;5029658;28;20918;-53
2023/01/01 07:13:39;;;;;;;6.90;3.50;;;14.80;99.90;;;;;;5030555;28;21008;-53
2023/01/01 07:16:06;;;;;;;7.80;3.83;;;14.80;99.90;;;;;;5031365;28;20904;-53
2023/01/01 07:18:33;;;;;;;3.97;3.50;;;14.90;99.90;;;;;;5030576;28;20467;-55
2023/01/01 07:21:01;;;;;;;7.60;3.03;;;15.00;99.90;;;;;;5031879;28;20516;-51
2023/01/01 07:23:29;;;;;;;7.67;4.00;;;15.00;99.90;;;;;;5030855;28;20492;-51
2023/01/01 07:25:57;;;;;;;5.20;3.70;;;15.00;99.90;;;;;;5030072;28;20551;-53
2023/01/01 07:28:25;;;;;;;4.10;3.70;;;14.90;99.90;;;;;;5028604;28;20977;-51
2023/01/01 07:30:52;;;;;;;15.60;4.30;;;15.00;99.90;;;;;;5022554;28;20585;-52
2023/01/01 07:33:23;;;;;;;8.00;3.90;;;14.90;99.90;;;;;;5029070;28;20473;-52
2023/01/01 07:35:50;;;;;;;4.93;3.60;;;14.90;99.90;;;;;;5029723;28;20831;-52
2023/01/01 07:38:17;;;;;;;8.53;3.87;;;14.90;99.90;;;;;;5031176;28;20554;-52
2023/01/01 07:40:43;;;;;;;14.83;3.37;;;14.90;99.90;;;;;;5031179;28;20491;-52
2023/01/01 07:43:13;;;;;;;7.80;3.70;;;14.80;99.90;;;;;;5030249;28;20558;-51
2023/01/01 07:45:40;;;;;;;8.83;3.80;;;14.80;99.90;;;;;;5023783;28;20486;-51
2023/01/01 07:48:10;;;;;;;10.80;3.43;;;14.80;99.90;;;;;;5031341;28;20554;-51
2023/01/01 07:50:37;;;;;;;10.70;3.33;;;14.90;99.90;;;;;;5029913;28;20911;-53
2023/01/01 07:53:04;;;;;;;5.00;3.30;;;14.80;99.90;;;;;;5031912;28;20459;-52
2023/01/01 07:55:30;;;;;;;6.70;3.47;;;14.80;99.90;;;;;;5030921;28;20463;-52
2023/01/01 07:57:57;;;;;;;4.23;3.20;;;14.90;99.90;;;;;;5029092;28;20514;-52
2023/01/01 08:00:24;;;;;;;14.17;4.30;;;14.90;99.90;;;;;;5029531;28;20563;-51
2023/01/01 08:02:52;;;;;;;11.53;4.17;;;15.00;99.90;;;;;;5030498;28;20459;-52
2023/01/01 08:05:19;;;;;;;5.00;3.60;;;15.00;99.90;;;;;;5029513;28;20591;-51
2023/01/01 08:07:46;;;;;;;6.90;4.00;;;15.00;99.90;;;;;;5029750;28;20551;-52
2023/01/01 08:10:13;;;;;;;4.43;3.30;;;14.90;99.90;;;;;;5030225;28;20479;-51
2023/01/01 08:12:40;;;;;;;7.93;3.57;;;14.90;99.90;;;;;;5030012;28;20491;-51
2023/01/01 08:15:08;;;;;;;8.30;4.07;;;15.00;99.90;;;;;;5030548;28;20901;-50
2023/01/01 08:17:36;;;;;;;6.17;3.87;;;14.90;99.90;;;;;;5031647;28;20531;-52
2023/01/01 08:20:04;;;;;;;12.57;3.70;;;14.90;99.90;;;;;;5030796;28;20566;-52
2023/01/01 08:22:31;;;;;;;5.37;3.50;;;14.90;99.90;;;;;;5030433;28;20498;-52
2023/01/01 08:24:57;;;;;;;5.03;3.60;;;14.80;99.90;;;;;;5026033;28;20487;-52
2023/01/01 08:27:24;;;;;;;9.23;4.17;;;14.90;99.90;;;;;;5031181;28;20479;-52
2023/01/01 08:29:50;;;;;;;8.50;3.73;;;14.90;99.90;;;;;;5029920;28;20519;-51
2023/01/01 08:32:17;;;;;;;9.10;3.83;;;14.90;99.90;;;;;;5031535;28;20532;-50
2023/01/01 08:34:44;;;;;;;6.23;3.80;;;14.90;99.90;;;;;;5030521;28;20465;-51
2023/01/01 08:37:13;;;;;;;4.93;4.10;;;15.00;99.90;;;;;;5030477;28;20503;-52
2023/01/01 08:39:40;;;;;;;5.73;3.70;;;15.00;99.90;;;;;;5027840;28;20546;-53
2023/01/01 08:42:06;;;;;;;3.73;3.37;;;15.00;99.90;;;;;;5028687;28;20977;-51
2023/01/01 08:44:33;;;;;;;9.20;3.97;;;15.00;99.90;;;;;;5029191;28;20483;-50
2023/01/01 08:47:00;;;;;;;4.43;4.03;;;15.00;99.90;;;;;;5029415;28;20458;-51
2023/01/01 08:49:26;;;;;;;3.90;3.50;;;15.10;99.90;;;;;;5031324;28;20519;-50
2023/01/01 08:51:54;;;;;;;5.33;4.13;;;15.10;99.90;;;;;;5029130;28;20501;-51
2023/01/01 08:54:21;;;;;;;6.20;4.20;;;15.00;99.90;;;;;;5029892;28;20540;-51
2023/01/01 08:56:47;;;;;;;15.23;4.17;;;15.10;99.90;;;;;;5027772;28;20495;-53
2023/01/01 08:59:14;;;;;;;11.00;4.57;;;15.10;99.90;;;;;;5030391;28;20915;-53
2023/01/01 09:01:40;;;;;;;9.97;5.40;;;15.10;99.90;;;;;;5027004;28;20991;-53
2023/01/01 09:04:11;;;;;;;7.70;4.27;;;15.10;99.90;;;;;;5028411;28;20498;-53
2023/01/01 09:06:37;;;;;;;9.20;5.00;;;15.10;99.90;;;;;;5027234;28;20455;-51
2023/01/01 09:09:05;;;;;;;7.27;4.27;;;15.10;99.90;;;;;;5030558;28;20906;-53
2023/01/01 09:11:32;;;;;;;15.40;4.40;;;15.10;99.90;;;;;;5029172;28;20571;-52
2023/01/01 09:13:58;;;;;;;15.00;4.80;;;15.10;99.90;;;;;;5024627;28;20496;-52
2023/01/01 09:16:25;;;;;;;4.70;3.97;;;15.10;99.90;;;;;;5034118;28;20528;-52
2023/01/01 09:18:52;;;;;;;6.50;4.80;;;15.20;99.90;;;;;;5029582;28;20550;-53
2023/01/01 09:21:19;;;;;;;5.03;4.20;;;15.10;99.90;;;;;;5032302;28;20513;-53
2023/01/01 09:23:45;;;;;;;6.30;4.60;;;15.10;99.90;;;;;;5034384;28;20889;-53
2023/01/01 09:26:13;;;;;;;10.10;4.97;;;15.10;99.90;;;;;;5033021;28;20582;-53
2023/01/01 09:28:40;;;;;;;10.47;5.03;;;15.20;99.90;;;;;;5028360;28;20487;-52
2023/01/01 09:31:06;;;;;;;5.30;4.33;;;15.10;99.90;;;;;;5032920;28;20588;-52
2023/01/01 09:33:33;;;;;;;14.80;5.00;;;15.20;99.90;;;;;;5033016;28;20495;-51
2023/01/01 09:36:13;;;;;;;11.53;5.13;;;15.20;99.90;;;;;;5033360;28;20513;-52
2023/01/01 09:38:40;;;;;;;6.93;4.50;;;15.20;99.90;;;;;;5032520;28;20471;-53
2023/01/01 09:41:17;;;;;;;5.13;4.20;;;15.30;99.90;;;;;;5031342;28;21308;-52
2023/01/01 09:43:54;;;;;;;6.63;4.43;;;15.30;99.90;;;;;;5027672;28;21117;-52
2023/01/01 09:46:24;;;;;;;7.00;5.37;;;15.30;99.90;;;;;;5033973;28;20562;-51
2023/01/01 09:48:55;;;;;;;6.27;4.67;;;15.30;99.90;;;;;;5031137;28;20562;-52
2023/01/01 09:51:23;;;;;;;10.43;5.30;;;15.30;99.90;;;;;;5029827;28;21068;-52
2023/01/01 09:53:54;;;;;;;7.17;4.53;;;15.30;99.90;;;;;;5033835;28;20487;-51
2023/01/01 09:56:26;;;;;;;9.00;4.00;;;15.40;99.90;;;;;;5032196;28;20455;-52
2023/01/01 09:58:54;;;;;;;5.23;3.30;;;15.40;99.90;;;;;;5027527;28;20551;-53
2023/01/01 10:01:33;;;;;;;6.67;4.20;;;15.40;99.90;;;;;;5031749;28;20570;-52
2023/01/01 10:04:12;;;;;;;6.07;3.80;;;15.40;99.90;;;;;;5028313;28;20555;-51
2023/01/01 10:06:44;;;;;;;13.13;4.70;;;15.40;99.90;;;;;;5028023;28;20578;-52
2023/01/01 10:09:22;;;;;;;16.60;3.27;;;15.40;99.90;;;;;;5030732;28;20549;-51
2023/01/01 10:11:59;;;;;;;6.47;4.90;;;15.50;99.90;;;;;;5029629;28;20921;-53
2023/01/01 10:14:32;;;;;;;9.90;3.80;;;15.50;99.90;;;;;;5031918;28;20554;-52
2023/01/01 10:17:02;;;;;;;6.77;4.17;;;15.50;99.90;;;;;;5032867;28;20479;-52
2023/01/01 10:19:35;;;;;;;8.90;3.40;;;15.50;99.90;;;;;;5018514;28;22360;-52
2023/01/01 10:22:07;;;;;;;8.83;4.30;;;15.50;99.90;;;;;;5028155;28;20495;-51
2023/01/01 10:24:42;;;;;;;6.60;3.67;;;15.50;99.90;;;;;;5026423;28;20962;-51
2023/01/01 10:27:23;;;;;;;10.37;3.33;;;15.50;99.90;;;;;;5027987;28;20559;-51
2023/01/01 10:29:51;;;;;;;7.20;3.87;;;15.50;99.90;;;;;;5027471;28;20542;-51
2023/01/01 10:32:20;;;;;;;3.70;3.30;;;15.50;99.90;;;;;;5030222;28;20928;-51
2023/01/01 10:34:48;;;;;;;9.50;4.53;;;15.50;99.90;;;;;;5031544;28;20539;-51
2023/01/01 10:37:16;;;;;;;4.03;3.40;;;15.60;99.90;;;;;;5032692;28;20535;-52
2023/01/01 10:39:44;;;;;;;10.70;4.43;;;15.60;99.90;;;;;;5031344;28;20510;-53
2023/01/01 10:42:14;;;;;;;7.10;3.60;;;15.60;99.90;;;;;;5028111;28;20459;-52
2023/01/01 10:44:42;;;;;;;13.07;3.77;;;15.60;99.90;;;;;;5029620;28;20491;-52
2023/01/01 10:47:23;;;;;;;6.23;3.53;;;15.60;99.90;;;;;;5030153;28;20892;-53
2023/01/01 10:49:58;;;;;;;6.53;3.50;;;15.60;99.90;;;;;;5027093;28;21243;-50
2023/01/01 10:52:31;;;;;;;5.90;3.63;;;15.60;99.90;;;;;;5029365;28;20546;-51
2023/01/01 10:54:58;;;;;;;9.60;3.30;;;15.60;99.90;;;;;;5026228;28;20488;-51
2023/01/01 10:57:37;;;;;;;5.80;3.40;;;15.60;99.90;;;;;;5024886;28;20602;-59
2023/01/01 11:00:20;;;;;;;4.63;3.70;;;15.60;99.90;;;;;;5028949;28;20494;-52
2023/01/01 11:03:17;;;;;;;4.80;3.40;;;15.60;99.90;;;;;;5029875;28;20473;-52
2023/01/01 11:06:15;;;;;;;7.80;3.67;;;15.60;99.90;;;;;;5024928;28;20610;-52
2023/01/01 11:08:48;;;;;;;4.93;3.03;;;15.60;99.90;;;;;;5030469;28;20547;-51
2023/01/01 11:11:21;;;;;;;12.43;4.50;;;15.60;99.90;;;;;;5028806;28;20491;-52
2023/01/01 11:13:52;;;;;;;7.30;3.57;;;15.60;99.90;;;;;;5030682;28;20610;-53
2023/01/01 11:16:19;;;;;;;5.03;3.30;;;15.60;99.90;;;;;;5029978;28;20820;-52
2023/01/01 11:18:47;;;;;;;8.10;2.90;;;15.60;99.90;;;;;;5031600;28;20535;-51
2023/01/01 11:21:20;;;;;;;5.33;3.43;;;15.60;99.90;;;;;;5031373;28;20557;-51
2023/01/01 11:23:48;;;;;;;15.53;3.17;;;15.60;99.90;;;;;;5028407;28;21091;-52
2023/01/01 11:26:23;;;;;;;3.63;2.90;;;15.60;99.90;;;;;;5028161;28;20570;-51
2023/01/01 11:29:03;;;;;;;8.53;2.70;;;15.60;99.90;;;;;;5032046;28;20851;-53
2023/01/01 11:31:34;;;;;;;27.57;3.50;;;15.60;99.90;;;;;;5029903;28;21076;-52
2023/01/01 11:34:03;;;;;;;7.50;3.40;;;15.70;99.90;;;;;;5032093;22;20599;-51
2023/01/01 11:36:31;;;;;;;8.50;3.30;;;15.70;99.90;;;;;;5030367;28;20534;-52
2023/01/01 11:39:20;;;;;;;7.47;3.20;;;15.70;99.90;;;;;;5029985;28;20872;-51
2023/01/01 11:41:49;;;;;;;3.10;2.90;;;15.70;99.90;;;;;;5018459;28;21101;-51
2023/01/01 11:44:30;;;;;;;5.00;3.13;;;15.70;99.90;;;;;;5031277;28;20496;-52
2023/01/01 11:46:57;;;;;;;6.50;3.23;;;15.70;99.90;;;;;;5029109;28;21061;-51
2023/01/01 11:49:28;;;;;;;7.33;3.23;;;15.70;99.90;;;;;;5029027;28;20546;-51
2023/01/01 11:51:55;;;;;;;7.67;3.23;;;15.70;99.90;;;;;;5029363;28;20496;-51
2023/01/01 11:54:25;;;;;;;6.27;3.27;;;15.70;99.90;;;;;;5030140;28;20547;-51
2023/01/01 11:56:54;;;;;;;5.97;2.97;;;15.60;99.90;;;;;;5022584;28;20550;-51
2023/01/01 11:59:26;;;;;;;5.53;2.87;;;15.60;99.90;;;;;;5028634;28;20550;-51
2023/01/01 12:01:58;;;;;;;7.70;3.80;;;15.60;99.90;;;;;;5026606;28;20495;-51
2023/01/01 12:04:29;;;;;;;2.87;2.67;;;15.60;99.90;;;;;;5024040;28;20563;-51
2023/01/01 12:07:02;;;;;;;3.30;3.00;;;15.60;99.90;;;;;;5024674;28;20562;-52
2023/01/01 12:09:36;;;;;;;2.80;2.30;;;15.50;99.90;;;;;;5025931;28;20454;-51
2023/01/01 12:12:08;;;;;;;4.80;3.03;;;15.50;99.90;;;;;;5024336;28;20543;-51
2023/01/01 12:14:44;;;;;;;9.13;3.00;;;15.50;99.90;;;;;;5024675;28;20491;-51
2023/01/01 12:17:17;;;;;;;4.30;2.90;;;15.50;99.90;;;;;;5030843;28;20541;-51
2023/01/01 12:19:55;;;;;;;3.27;2.70;;;15.50;99.90;;;;;;5024311;28;20447;-51
2023/01/01 12:22:21;;;;;;;6.73;2.87;;;15.50;99.90;;;;;;5021821;28;20952;-51
2023/01/01 12:24:49;;;;;;;9.93;2.57;;;15.50;99.90;;;;;;5028155;28;20568;-51
2023/01/01 12:27:19;;;;;;;5.50;3.20;;;15.60;99.90;;;;;;5023338;28;20520;-51
2023/01/01 12:30:05;;;;;;;2.90;2.00;;;15.60;99.90;;;;;;5030162;28;20558;-52
2023/01/01 12:32:52;;;;;;;6.33;2.50;;;15.50;99.90;;;;;;5029967;28;20571;-51
2023/01/01 12:35:43;;;;;;;2.40;2.00;;;15.60;99.90;;;;;;5023885;28;20496;-51
2023/01/01 12:38:22;;;;;;;7.00;2.57;;;15.60;99.90;;;;;;5023330;28;20551;-51
2023/01/01 12:40:58;;;;;;;2.30;2.10;;;15.70;99.90;;;;;;5025460;28;20811;-51
2023/01/01 12:43:31;;;;;;;6.57;2.50;;;15.80;99.90;;;;;;5028678;28;20511;-52
2023/01/01 12:46:19;;;;;;;3.00;1.90;;;15.70;99.90;;;;;;5029500;28;20515;-51
2023/01/01 12:49:04;;;;;;;3.70;2.40;;;15.70;99.90;;;;;;5030223;28;20554;-52
2023/01/01 12:51:41;;;;;;;6.87;2.30;;;15.70;99.90;;;;;;5027251;28;20554;-51
2023/01/01 12:54:31;;;;;;;5.60;2.50;;;15.70;99.90;;;;;;5027056;28;20562;-51
2023/01/01 12:57:03;;;;;;;2.93;2.40;;;15.60;99.90;;;;;;5008804;28;20546;-51
2023/01/01 12:59:33;;;;;;;4.13;2.53;;;15.60;99.90;;;;;;5033885;28;20942;-51
2023/01/01 13:02:10;;;;;;;3.53;3.03;;;15.60;99.90;;;;;;5033776;28;20522;-51